createdAt,value
2022-11-08T00:00:12.747Z,92.90
2022-11-08T00:02:39.696Z,93.00
2022-11-08T00:05:25.887Z,92.70
2022-11-08T00:08:11.033Z,92.90
2022-11-08T00:10:56.411Z,92.80
2022-11-08T00:13:41.745Z,92.60
2022-11-08T00:16:08.582Z,92.70
2022-11-08T00:18:35.329Z,92.60
2022-11-08T00:21:03.143Z,92.10
2022-11-08T00:23:30.437Z,91.90
2022-11-08T00:25:57.279Z,92.00
2022-11-08T00:28:23.970Z,92.20
2022-11-08T00:30:50.708Z,92.20
2022-11-08T00:33:17.419Z,92.10
2022-11-08T00:35:44.125Z,92.20
2022-11-08T00:38:10.849Z,92.10
2022-11-08T00:40:37.585Z,92.20
2022-11-08T00:43:04.313Z,92.60
2022-11-08T00:45:31.070Z,93.00
2022-11-08T00:47:57.748Z,93.10
2022-11-08T00:50:24.475Z,92.90
2022-11-08T00:52:51.189Z,92.70
2022-11-08T00:55:17.914Z,92.00
2022-11-08T00:57:59.080Z,91.70
2022-11-08T01:00:27.571Z,91.80
2022-11-08T01:03:14.323Z,91.90
2022-11-08T01:05:41.222Z,92.00
2022-11-08T01:08:08.112Z,91.90
2022-11-08T01:10:35.613Z,91.80
2022-11-08T01:13:02.389Z,91.50
2022-11-08T01:15:33.798Z,92.30
2022-11-08T01:18:00.603Z,92.30
2022-11-08T01:20:27.321Z,92.40
2022-11-08T01:22:54.100Z,92.00
2022-11-08T01:25:20.933Z,92.60
2022-11-08T01:27:47.831Z,93.20
2022-11-08T01:30:14.629Z,92.80
2022-11-08T01:32:41.344Z,93.30
2022-11-08T01:35:10.289Z,93.40
2022-11-08T01:37:37.000Z,93.10
2022-11-08T01:40:05.185Z,93.10
2022-11-08T01:42:33.284Z,92.90
2022-11-08T01:45:08.990Z,92.60
2022-11-08T01:47:35.769Z,92.80
2022-11-08T01:50:16.523Z,93.00
2022-11-08T01:52:47.271Z,92.80
2022-11-08T01:55:19.741Z,92.70
2022-11-08T01:57:52.652Z,92.80
2022-11-08T02:00:19.826Z,92.20
2022-11-08T02:02:54.470Z,91.80
2022-11-08T02:05:27.072Z,92.00
2022-11-08T02:08:07.864Z,92.50
2022-11-08T02:10:37.881Z,92.40
2022-11-08T02:13:11.970Z,92.30
2022-11-08T02:15:41.253Z,92.70
2022-11-08T02:18:08.256Z,92.80
2022-11-08T02:20:35.279Z,92.80
2022-11-08T02:23:21.731Z,92.60
2022-11-08T02:25:48.476Z,92.70
2022-11-08T02:28:16.508Z,92.90
2022-11-08T02:30:43.493Z,92.70
2022-11-08T02:33:22.038Z,92.30
2022-11-08T02:35:51.672Z,92.20
2022-11-08T02:38:19.391Z,92.20
2022-11-08T02:40:51.546Z,92.10
2022-11-08T02:43:20.408Z,92.30
2022-11-08T02:45:47.188Z,92.60
2022-11-08T02:48:16.728Z,92.30
2022-11-08T02:50:44.525Z,92.40
2022-11-08T02:53:12.729Z,92.50
2022-11-08T02:55:39.582Z,92.70
2022-11-08T02:58:06.393Z,92.70
2022-11-08T03:00:33.107Z,92.70
2022-11-08T03:03:00.351Z,92.80
2022-11-08T03:05:28.367Z,92.90
2022-11-08T03:07:56.206Z,93.30
2022-11-08T03:10:25.055Z,93.80
2022-11-08T03:12:59.660Z,94.20
2022-11-08T03:15:27.364Z,94.50
2022-11-08T03:17:56.129Z,94.40
2022-11-08T03:20:29.645Z,94.40
2022-11-08T03:23:00.960Z,94.50
2022-11-08T03:25:27.911Z,93.30
2022-11-08T03:27:54.742Z,92.80
2022-11-08T03:30:21.951Z,93.00
2022-11-08T03:32:50.166Z,92.50
2022-11-08T03:35:17.165Z,93.50
2022-11-08T03:37:56.920Z,93.40
2022-11-08T03:40:24.949Z,93.50
2022-11-08T03:42:51.797Z,93.40
2022-11-08T03:45:18.590Z,93.20
2022-11-08T03:47:47.066Z,93.10
2022-11-08T03:50:16.222Z,92.70
2022-11-08T03:52:44.178Z,92.70
2022-11-08T03:55:11.889Z,92.30
2022-11-08T03:57:40.302Z,92.50
2022-11-08T04:00:08.696Z,92.40
2022-11-08T04:02:35.489Z,92.50
2022-11-08T04:05:02.269Z,92.80
2022-11-08T04:07:29.250Z,92.40
2022-11-08T04:09:56.202Z,92.40
2022-11-08T04:12:41.671Z,92.40
2022-11-08T04:15:16.107Z,92.80
2022-11-08T04:18:03.587Z,92.80
2022-11-08T04:20:48.926Z,92.90
2022-11-08T04:23:16.833Z,93.40
2022-11-08T04:25:44.623Z,93.70
2022-11-08T04:28:11.552Z,94.00
2022-11-08T04:30:38.469Z,94.30
2022-11-08T04:33:06.948Z,94.40
2022-11-08T04:35:33.664Z,94.60
2022-11-08T04:38:03.523Z,94.70
2022-11-08T04:40:31.686Z,94.40
2022-11-08T04:42:58.410Z,94.50
2022-11-08T04:45:25.120Z,94.50
2022-11-08T04:47:51.922Z,94.20
2022-11-08T04:50:18.662Z,94.40
2022-11-08T04:52:54.578Z,94.40
2022-11-08T04:55:22.819Z,94.30
2022-11-08T04:57:49.733Z,94.10
2022-11-08T05:00:17.660Z,93.90
2022-11-08T05:02:44.537Z,94.00
2022-11-08T05:05:11.439Z,94.10
2022-11-08T05:07:38.176Z,93.90
2022-11-08T05:10:05.346Z,94.30
2022-11-08T05:12:32.251Z,94.50
2022-11-08T05:14:59.051Z,94.20
2022-11-08T05:17:25.765Z,94.10
2022-11-08T05:20:11.281Z,94.30
2022-11-08T05:22:56.485Z,94.40
2022-11-08T05:25:23.243Z,94.20
2022-11-08T05:27:49.946Z,94.20
2022-11-08T05:30:16.695Z,94.10
2022-11-08T05:32:43.404Z,94.40
2022-11-08T05:35:10.138Z,94.40
2022-11-08T05:37:40.003Z,94.40
2022-11-08T05:40:07.488Z,94.50
2022-11-08T05:42:34.201Z,94.50
2022-11-08T05:45:04.026Z,94.30
2022-11-08T05:47:34.889Z,94.40
2022-11-08T05:50:01.623Z,94.60
2022-11-08T05:52:28.739Z,94.60
2022-11-08T05:54:55.453Z,94.70
2022-11-08T05:57:22.676Z,94.10
2022-11-08T05:59:49.396Z,94.30
2022-11-08T06:02:17.690Z,94.60
2022-11-08T06:04:44.576Z,94.60
2022-11-08T06:07:11.286Z,94.60
2022-11-08T06:09:38.076Z,94.60
2022-11-08T06:12:05.189Z,94.60
2022-11-08T06:14:31.947Z,94.60
2022-11-08T06:16:58.705Z,94.40
2022-11-08T06:19:25.434Z,94.40
2022-11-08T06:21:52.150Z,94.60
2022-11-08T06:24:18.846Z,94.50
2022-11-08T06:26:45.552Z,94.70
2022-11-08T06:29:12.276Z,94.50
2022-11-08T06:31:42.846Z,94.30
2022-11-08T06:34:10.266Z,94.30
2022-11-08T06:36:37.335Z,94.40
2022-11-08T06:39:04.231Z,94.40
2022-11-08T06:41:32.168Z,94.40
2022-11-08T06:43:59.342Z,94.20
2022-11-08T06:46:26.520Z,94.50
2022-11-08T06:48:53.387Z,94.60
2022-11-08T06:51:21.517Z,94.30
2022-11-08T06:53:48.234Z,94.30
2022-11-08T06:56:15.031Z,94.30
2022-11-08T06:58:41.928Z,94.20
2022-11-08T07:01:10.402Z,94.30
2022-11-08T07:03:37.327Z,94.40
2022-11-08T07:06:05.681Z,94.60
2022-11-08T07:08:33.220Z,94.80
2022-11-08T07:11:00.161Z,94.90
2022-11-08T07:13:26.916Z,94.80
2022-11-08T07:15:57.529Z,94.80
2022-11-08T07:18:24.833Z,94.70
2022-11-08T07:20:52.358Z,94.60
2022-11-08T07:23:20.068Z,94.60
2022-11-08T07:25:47.005Z,94.40
2022-11-08T07:28:17.317Z,94.70
2022-11-08T07:30:45.626Z,94.10
2022-11-08T07:33:13.244Z,94.30
2022-11-08T07:35:40.041Z,94.20
2022-11-08T07:38:07.183Z,94.00
2022-11-08T07:40:35.178Z,94.30
2022-11-08T07:43:17.509Z,94.10
2022-11-08T07:45:44.308Z,93.70
2022-11-08T07:48:13.624Z,93.70
2022-11-08T07:50:42.176Z,93.80
2022-11-08T07:53:09.297Z,93.60
2022-11-08T07:55:37.712Z,93.70
2022-11-08T07:58:05.149Z,93.60
2022-11-08T08:00:36.219Z,93.70
2022-11-08T08:03:04.519Z,93.80
2022-11-08T08:05:35.242Z,94.10
2022-11-08T08:08:02.460Z,93.90
2022-11-08T08:10:30.394Z,93.60
2022-11-08T08:12:57.956Z,93.60
2022-11-08T08:15:25.488Z,93.70
2022-11-08T08:17:52.186Z,93.60
2022-11-08T08:20:19.333Z,93.40
2022-11-08T08:22:48.164Z,93.10
2022-11-08T08:25:15.718Z,93.20
2022-11-08T08:27:50.217Z,93.00
2022-11-08T08:30:18.494Z,92.90
2022-11-08T08:32:53.394Z,92.50
2022-11-08T08:35:24.604Z,92.70
2022-11-08T08:37:51.323Z,92.40
2022-11-08T08:40:18.204Z,92.70
2022-11-08T08:42:44.924Z,92.70
2022-11-08T08:45:14.851Z,92.70
2022-11-08T08:47:42.107Z,92.40
2022-11-08T08:50:09.353Z,92.20
2022-11-08T08:52:36.230Z,92.40
2022-11-08T08:55:03.010Z,92.50
2022-11-08T08:57:30.147Z,92.40
2022-11-08T09:02:44.274Z,92.30
2022-11-08T09:05:12.700Z,92.30
2022-11-08T09:07:40.208Z,92.10
2022-11-08T09:10:09.262Z,91.70
2022-11-08T09:12:36.326Z,91.00
2022-11-08T09:15:04.715Z,90.90
2022-11-08T09:17:32.029Z,90.70
2022-11-08T09:19:58.801Z,90.80
2022-11-08T09:22:25.514Z,90.50
2022-11-08T09:24:52.225Z,90.40
2022-11-08T09:27:18.998Z,90.20
2022-11-08T09:29:45.694Z,89.50
2022-11-08T09:32:12.535Z,89.50
2022-11-08T09:34:39.374Z,89.50
2022-11-08T09:37:06.063Z,89.00
2022-11-08T09:39:32.780Z,88.60
2022-11-08T09:42:14.424Z,89.20
2022-11-08T09:45:11.269Z,88.30
2022-11-08T09:47:40.354Z,88.30
2022-11-08T09:50:19.312Z,88.50
2022-11-08T09:52:55.020Z,87.60
2022-11-08T09:55:43.562Z,87.00
2022-11-08T09:58:25.354Z,86.00
2022-11-08T10:00:53.218Z,86.10
2022-11-08T10:03:23.236Z,86.10
2022-11-08T10:06:14.152Z,85.40
2022-11-08T10:08:50.577Z,86.00
2022-11-08T10:11:50.166Z,85.40
2022-11-08T10:14:22.417Z,84.40
2022-11-08T10:17:11.842Z,82.40
2022-11-08T10:20:32.699Z,80.50
2022-11-08T10:23:22.013Z,79.70
2022-11-08T10:25:57.732Z,77.50
2022-11-08T10:28:57.541Z,77.30
2022-11-08T10:31:26.539Z,75.40
2022-11-08T10:33:56.170Z,76.00
2022-11-08T10:36:38.251Z,75.90
2022-11-08T10:39:17.354Z,72.50
2022-11-08T10:41:49.904Z,71.70
2022-11-08T10:44:23.741Z,71.20
2022-11-08T10:46:56.554Z,71.30
2022-11-08T10:49:31.916Z,70.20
2022-11-08T10:52:20.492Z,71.60
2022-11-08T10:54:55.519Z,71.10
2022-11-08T10:57:25.455Z,68.40
2022-11-08T10:59:52.998Z,69.90
2022-11-08T11:02:27.540Z,68.90
2022-11-08T11:05:24.446Z,68.90
2022-11-08T11:08:00.782Z,72.20
2022-11-08T11:10:49.049Z,67.70
2022-11-08T11:13:23.842Z,67.40
2022-11-08T11:15:53.804Z,66.00
2022-11-08T11:18:59.500Z,66.40
2022-11-08T11:21:26.271Z,65.20
2022-11-08T11:23:55.950Z,67.30
2022-11-08T11:26:40.313Z,66.40
2022-11-08T11:29:07.018Z,62.70
2022-11-08T11:31:42.346Z,62.70
2022-11-08T11:34:18.072Z,64.80
2022-11-08T11:36:51.192Z,61.20
2022-11-08T11:39:57.682Z,63.60
2022-11-08T11:42:49.638Z,61.90
2022-11-08T11:45:19.971Z,61.40
2022-11-08T11:47:58.156Z,60.60
2022-11-08T11:50:39.403Z,58.70
2022-11-08T11:53:14.175Z,60.00
2022-11-08T11:55:56.052Z,57.90
2022-11-08T11:58:57.898Z,56.40
2022-11-08T12:01:52.478Z,59.20
2022-11-08T12:04:47.406Z,57.10
2022-11-08T12:07:28.469Z,56.10
2022-11-08T12:10:07.847Z,58.20
2022-11-08T12:12:52.650Z,56.10
2022-11-08T12:15:41.629Z,56.60
2022-11-08T12:18:42.663Z,55.10
2022-11-08T12:21:33.079Z,54.30
2022-11-08T12:24:15.089Z,54.60
2022-11-08T12:27:05.491Z,55.00
2022-11-08T12:29:44.562Z,54.60
2022-11-08T12:32:29.809Z,56.60
2022-11-08T12:35:14.648Z,56.80
2022-11-08T12:37:48.576Z,55.80
2022-11-08T12:40:33.759Z,57.10
2022-11-08T12:43:23.899Z,55.30
2022-11-08T12:46:10.039Z,53.00
2022-11-08T12:48:55.539Z,53.60
2022-11-08T12:51:28.445Z,52.90
2022-11-08T12:54:15.324Z,51.60
2022-11-08T12:56:48.308Z,50.40
2022-11-08T12:59:21.305Z,48.10
2022-11-08T13:01:48.992Z,47.90
2022-11-08T13:04:34.649Z,47.30
2022-11-08T13:07:30.517Z,46.20
2022-11-08T13:10:15.919Z,44.50
2022-11-08T13:13:12.984Z,42.30
2022-11-08T13:16:08.958Z,43.50
2022-11-08T13:18:49.143Z,41.70
2022-11-08T13:21:27.875Z,43.20
2022-11-08T13:24:43.002Z,43.80
2022-11-08T13:27:37.445Z,43.10
2022-11-08T13:30:24.813Z,44.30
2022-11-08T13:33:12.646Z,45.00
2022-11-08T13:35:49.120Z,47.50
2022-11-08T13:38:16.799Z,46.40
2022-11-08T13:41:04.644Z,46.20
2022-11-08T13:43:34.981Z,46.20
2022-11-08T13:46:20.304Z,48.10
2022-11-08T13:49:01.953Z,46.70
2022-11-08T13:51:36.652Z,45.00
2022-11-08T13:54:23.314Z,44.00
2022-11-08T13:56:52.296Z,45.00
2022-11-08T13:59:33.093Z,45.10
2022-11-08T14:02:25.470Z,46.50
2022-11-08T14:04:53.847Z,47.60
2022-11-08T14:07:38.863Z,47.50
2022-11-08T14:10:21.043Z,45.80
2022-11-08T14:12:50.657Z,48.70
2022-11-08T14:15:29.517Z,47.70
2022-11-08T14:18:12.312Z,50.10
2022-11-08T14:20:42.513Z,52.10
2022-11-08T14:23:35.204Z,55.50
2022-11-08T14:26:15.373Z,58.00
2022-11-08T14:28:47.202Z,59.80
2022-11-08T14:31:30.523Z,60.10
2022-11-08T14:33:59.337Z,61.60
2022-11-08T14:36:29.182Z,63.30
2022-11-08T14:39:14.993Z,64.70
2022-11-08T14:41:46.571Z,66.40
2022-11-08T14:44:16.056Z,67.20
2022-11-08T14:46:42.970Z,67.00
2022-11-08T14:49:36.472Z,66.70
2022-11-08T14:52:32.834Z,66.20
2022-11-08T14:55:11.521Z,66.30
2022-11-08T14:57:39.419Z,66.90
2022-11-08T15:00:19.075Z,68.70
2022-11-08T15:02:50.462Z,71.00
2022-11-08T15:05:46.593Z,72.10
2022-11-08T15:08:38.314Z,72.60
2022-11-08T15:11:12.296Z,73.60
2022-11-08T15:13:51.407Z,75.00
2022-11-08T15:16:21.833Z,76.00
2022-11-08T15:18:48.977Z,76.40
2022-11-08T15:21:15.649Z,76.60
2022-11-08T15:23:47.105Z,77.20
2022-11-08T15:26:22.071Z,77.70
2022-11-08T15:29:17.180Z,78.40
2022-11-08T15:31:55.574Z,79.30
2022-11-08T15:34:41.051Z,79.80
2022-11-08T15:37:27.645Z,79.90
2022-11-08T15:39:55.511Z,80.10
2022-11-08T15:42:22.578Z,79.60
2022-11-08T15:45:01.446Z,80.60
2022-11-08T15:47:43.690Z,82.30
2022-11-08T15:50:16.035Z,82.60
2022-11-08T15:52:43.522Z,82.80
2022-11-08T15:55:24.216Z,83.40
2022-11-08T15:57:51.329Z,84.40
2022-11-08T16:00:24.533Z,83.50
2022-11-08T16:02:52.356Z,83.20
2022-11-08T16:05:25.176Z,83.10
2022-11-08T16:07:53.071Z,83.40
2022-11-08T16:10:25.605Z,83.90
2022-11-08T16:12:53.230Z,84.20
2022-11-08T16:15:24.691Z,84.90
2022-11-08T16:17:51.873Z,85.60
2022-11-08T16:20:22.110Z,86.50
2022-11-08T16:22:48.952Z,87.00
2022-11-08T16:25:17.012Z,87.50
2022-11-08T16:27:43.870Z,87.60
2022-11-08T16:30:16.117Z,87.80
2022-11-08T16:32:43.177Z,87.30
2022-11-08T16:35:12.750Z,87.20
2022-11-08T16:37:40.037Z,87.60
2022-11-08T16:40:20.151Z,87.10
2022-11-08T16:42:48.231Z,87.70
2022-11-08T16:45:16.623Z,88.00
2022-11-08T16:47:46.012Z,88.20
2022-11-08T16:50:21.198Z,88.00
2022-11-08T16:52:48.020Z,87.90
2022-11-08T16:55:17.929Z,88.10
2022-11-08T16:57:45.323Z,88.60
2022-11-08T17:00:15.799Z,89.20
2022-11-08T17:02:51.524Z,89.60
2022-11-08T17:05:23.678Z,90.00
2022-11-08T17:07:51.397Z,89.70
2022-11-08T17:10:27.638Z,89.80
2022-11-08T17:12:54.854Z,89.00
2022-11-08T17:15:26.802Z,89.10
2022-11-08T17:17:56.215Z,89.30
2022-11-08T17:20:25.153Z,89.10
2022-11-08T17:22:52.165Z,89.30
2022-11-08T17:25:24.233Z,89.70
2022-11-08T17:27:52.032Z,89.50
2022-11-08T17:30:26.544Z,89.50
2022-11-08T17:32:54.645Z,89.80
2022-11-08T17:35:22.024Z,89.80
2022-11-08T17:37:48.814Z,89.70
2022-11-08T17:40:15.734Z,89.30
2022-11-08T17:42:42.580Z,89.00
2022-11-08T17:45:11.049Z,89.10
2022-11-08T17:47:38.613Z,88.80
2022-11-08T17:50:06.710Z,89.50
2022-11-08T17:52:33.762Z,90.00
2022-11-08T17:55:00.484Z,90.10
2022-11-08T17:57:27.226Z,90.00
2022-11-08T17:59:53.998Z,90.10
2022-11-08T18:02:20.896Z,89.90
2022-11-08T18:04:48.520Z,88.90
2022-11-08T18:07:15.463Z,89.30
2022-11-08T18:09:42.284Z,89.40
2022-11-08T18:12:09.183Z,88.60
2022-11-08T18:14:36.167Z,89.00
2022-11-08T18:17:04.997Z,89.50
2022-11-08T18:19:32.125Z,89.50
2022-11-08T18:22:00.271Z,89.70
2022-11-08T18:24:27.098Z,89.70
2022-11-08T18:26:54.050Z,90.10
2022-11-08T18:29:20.958Z,90.30
2022-11-08T18:31:47.865Z,90.90
2022-11-08T18:34:14.704Z,91.60
2022-11-08T18:36:41.473Z,91.60
2022-11-08T18:39:08.266Z,91.10
2022-11-08T18:41:35.113Z,90.90
2022-11-08T18:44:02.782Z,91.00
2022-11-08T18:46:40.297Z,91.20
2022-11-08T18:49:09.880Z,91.20
2022-11-08T18:51:36.673Z,91.60
2022-11-08T18:54:03.921Z,91.50
2022-11-08T18:56:30.644Z,91.20
2022-11-08T18:58:57.545Z,91.00
2022-11-08T19:01:24.561Z,90.90
2022-11-08T19:03:51.398Z,91.40
2022-11-08T19:06:19.350Z,90.70
2022-11-08T19:08:46.379Z,91.00
2022-11-08T19:11:14.458Z,90.80
2022-11-08T19:13:41.459Z,90.80
2022-11-08T19:16:13.443Z,90.80
2022-11-08T19:18:40.996Z,89.30
2022-11-08T19:21:11.733Z,89.90
2022-11-08T19:23:39.278Z,90.40
2022-11-08T19:26:11.535Z,90.40
2022-11-08T19:28:40.769Z,91.40
2022-11-08T19:31:07.648Z,92.20
2022-11-08T19:33:35.262Z,92.10
2022-11-08T19:36:06.938Z,91.80
2022-11-08T19:38:38.233Z,91.60
2022-11-08T19:41:16.771Z,91.90
2022-11-08T19:43:45.628Z,92.30
2022-11-08T19:46:14.670Z,91.80
2022-11-08T19:48:43.267Z,92.00
2022-11-08T19:51:18.219Z,90.90
2022-11-08T19:53:45.195Z,91.20
2022-11-08T19:56:15.061Z,91.50
2022-11-08T19:58:42.001Z,91.70
2022-11-08T20:01:13.911Z,91.70
2022-11-08T20:03:41.221Z,92.00
2022-11-08T20:06:09.330Z,91.90
2022-11-08T20:08:36.591Z,91.80
2022-11-08T20:11:23.925Z,91.50
2022-11-08T20:13:51.749Z,91.10
2022-11-08T20:16:20.356Z,90.70
2022-11-08T20:18:47.231Z,91.10
2022-11-08T20:21:15.515Z,91.10
2022-11-08T20:23:42.990Z,91.40
2022-11-08T20:26:18.243Z,91.50
2022-11-08T20:28:55.835Z,91.40
2022-11-08T20:31:25.065Z,91.70
2022-11-08T20:33:53.573Z,91.60
2022-11-08T20:36:22.502Z,91.70
2022-11-08T20:38:49.766Z,91.80
2022-11-08T20:41:17.791Z,91.90
2022-11-08T20:43:47.005Z,91.90
2022-11-08T20:46:19.185Z,92.00
2022-11-08T20:48:50.620Z,91.80
2022-11-08T20:51:19.480Z,91.50
2022-11-08T20:53:47.180Z,92.20
2022-11-08T20:56:19.892Z,92.10
2022-11-08T20:58:48.165Z,92.20
2022-11-08T21:01:18.348Z,92.00
2022-11-08T21:03:45.883Z,91.40
2022-11-08T21:06:15.821Z,91.50
2022-11-08T21:09:00.764Z,91.80
2022-11-08T21:11:30.720Z,91.80
2022-11-08T21:13:58.120Z,91.60
2022-11-08T21:16:46.829Z,92.70
2022-11-08T21:19:11.677Z,92.30
2022-11-08T21:21:38.436Z,92.40
2022-11-08T21:24:05.291Z,92.90
2022-11-08T21:26:36.237Z,92.90
2022-11-08T21:29:04.684Z,92.50
2022-11-08T21:31:31.957Z,92.50
2022-11-08T21:33:58.782Z,92.30
2022-11-08T21:36:26.921Z,92.30
2022-11-08T21:38:54.118Z,92.70
2022-11-08T21:41:21.206Z,92.00
2022-11-08T21:43:48.546Z,92.30
2022-11-08T21:46:21.374Z,92.50
2022-11-08T21:48:56.659Z,92.60
2022-11-08T21:51:24.194Z,92.30
2022-11-08T21:53:54.913Z,92.50
2022-11-08T21:56:23.758Z,92.50
2022-11-08T21:58:50.511Z,91.90
2022-11-08T22:01:17.577Z,92.00
2022-11-08T22:03:44.480Z,92.30
2022-11-08T22:06:11.371Z,91.80
2022-11-08T22:08:38.165Z,91.90
2022-11-08T22:11:05.503Z,91.40
2022-11-08T22:13:32.506Z,91.00
2022-11-08T22:15:59.337Z,91.70
2022-11-08T22:18:43.362Z,92.20
2022-11-08T22:21:35.704Z,92.30
2022-11-08T22:24:02.446Z,92.60
2022-11-08T22:26:29.457Z,92.50
2022-11-08T22:28:56.134Z,92.20
2022-11-08T22:31:22.838Z,91.90
2022-11-08T22:33:49.590Z,92.30
2022-11-08T22:36:19.275Z,92.10
2022-11-08T22:38:46.713Z,91.90
2022-11-08T22:41:18.475Z,92.70
2022-11-08T22:43:46.054Z,92.60
2022-11-08T22:46:13.159Z,92.20
2022-11-08T22:48:40.195Z,92.50
2022-11-08T22:51:07.455Z,92.80
2022-11-08T22:53:34.459Z,92.50
2022-11-08T22:56:02.829Z,92.80
2022-11-08T22:58:32.395Z,92.80
2022-11-08T23:00:59.406Z,92.90
2022-11-08T23:03:26.088Z,93.10
2022-11-08T23:05:55.285Z,92.20
2022-11-08T23:08:24.057Z,92.00
2022-11-08T23:11:10.006Z,92.30
2022-11-08T23:13:55.905Z,91.70
2022-11-08T23:16:34.933Z,91.70
2022-11-08T23:19:23.915Z,93.40
2022-11-08T23:22:10.378Z,93.80
2022-11-08T23:24:37.196Z,93.40
2022-11-08T23:27:27.713Z,93.20
2022-11-08T23:30:13.314Z,92.90
2022-11-08T23:32:45.255Z,93.30
2022-11-08T23:35:12.715Z,93.50
2022-11-08T23:37:39.738Z,93.40
2022-11-08T23:40:27.032Z,93.00
2022-11-08T23:43:30.651Z,92.90
2022-11-08T23:45:58.560Z,93.10
2022-11-08T23:48:27.006Z,93.10
2022-11-08T23:50:54.829Z,93.10
2022-11-08T23:53:26.275Z,93.00
2022-11-08T23:55:54.370Z,93.10
2022-11-08T23:58:21.973Z,92.90
